NCAR-RAP Real-Time Weather Data

Output produced by METARs form (17 October 2018  16:40 UTC)
found at http://weather.rap.ucar.edu/surface/
 
RJCN 170900Z VRB02KT 9999 FEW030 SCT060 BKN080 10/02 Q1011
RJCN 170800Z VRB01KT 9999 FEW030 SCT060 BKN080 10/03 Q1010
RJCN 170700Z 29003KT 240V340 9999 FEW030 SCT060 BKN080 12/02 Q1010
RJCN 170600Z 21007KT 9999 FEW030 SCT060 13/00 Q1009
RJCN 170500Z 26004KT 240V320 9999 FEW030 SCT060 14/02 Q1009
RJCN 170400Z 28006KT 230V020 9999 FEW030 14/M01 Q1009
RJCN 170300Z 28007KT 220V340 9999 FEW030 14/M01 Q1009
RJCN 170200Z 28006KT 240V330 9999 FEW030 13/00 Q1009
RJCN 170100Z 28008KT 240V320 9999 FEW030 13/01 Q1009
RJCN 170000Z 32011G22KT 280V010 9999 FEW030 BKN/// 12/M00 Q1009
RJCN 162330Z 31008KT 260V360 9999 FEW030 BKN/// 11/00 Q1010
RJCN 160900Z VRB01KT 9999 FEW025 SCT035 10/08 Q1010
RJCN 160800Z VRB02KT 9999 FEW025 SCT035 12/09 Q1010
RJCN 160700Z 24004KT 9999 FEW015 BKN025 FEW025CB 15/10 Q1010
RJCN 160600Z 21008KT 180V240 9999 FEW020 16/09 Q1009
RJCN 160500Z 20008KT 170V240 9999 FEW020 BKN080 17/10 Q1010
RJCN 160400Z 22007KT 9999 FEW020 BKN080 16/11 Q1010
RJCN 160300Z 23008KT 190V260 9999 FEW020 BKN090 15/11 Q1011
RJCN 160200Z 23007KT 9999 FEW015 SCT025 BKN100 15/11 Q1012
RJCN 160100Z 20005KT 9999 FEW010 SCT025 15/11 Q1012
RJCN 160000Z 24004KT 220V300 9999 FEW010 SCT015 BKN020 14/12 Q1013
RJCN 152330Z 25004KT 9999 FEW010 SCT020 13/12 Q1014
RJCN 150900Z 23008KT 9999 FEW020 10/08 Q1017
RJCN 150800Z 20007KT 9999 FEW020 11/08 Q1017
RJCN 150700Z 17010KT 9999 FEW020 13/08 Q1017
RJCN 150600Z 17010KT 140V210 9999 FEW020 SCT040 14/09 Q1016
RJCN 150500Z 23006KT 190V270 9999 FEW025 SCT035 16/08 Q1016